Aurora, Utah
Current Conditions -  °F | °C
As of 7:15 AM on Thursday 27 Nov 2014 (Local Time) from KDTA Reporting Station
Clear Clear  
Wind Chill: 28°   Ceiling: Unl
Heat Index: 33°   Visibility: 10mi
Dew Point: 26°   Wind: 5mph
Humidity: 76%   Direction: 50°NE
Pressure: 30.36"   Gusts: NA
Location:  38.92°N, 111.93°W
Report Text: KDTA 271415Z AUTO 05004KT 10SM CLR 00/M03 A3036 RMK AO1 T00031035
Loading
Personal Weather Stations






























Interactive Weather Map New forecast layout! Learn more

10-Day Weather Forecast

Advertisements
Track Severe Weather on mobile